Villanueva de Castellon, Spain
Current Conditions -  °F | °C
As of 1:00 PM on Monday 24 Nov 2014 (Local Time) from LEVC Reporting Station
Few Clouds Few Clouds  
Wind Chill: 72°   Ceiling: Unl
Heat Index: 72°   Visibility: 6mi
Dew Point: 55°   Wind: 1mph
Humidity: 57%   Direction: NA
Pressure: 30"   Gusts: NA
Location:  39.08°N, 0.51°W
Report Text: LEVC 241200Z VRB01KT 9999 FEW025 22/13 Q1016 NOSIG
Loading
Personal Weather Stations






























Interactive Weather Map New forecast layout! Learn more

10-Day Weather Forecast

Advertisements
Track Severe Weather on mobile